sensor_id;sensor_type;location;lat;lon;timestamp;pressure;altitude;pressure_sealevel;temperature;humidity
73073;BME280;61260;51.090;-1.786;2022-08-01T00:02:23;101154.83;;;18.09;74.48
73073;BME280;61260;51.090;-1.786;2022-08-01T00:04:56;101149.56;;;18.03;74.67
73073;BME280;61260;51.090;-1.786;2022-08-01T00:07:26;101159.14;;;17.96;74.85
73073;BME280;61260;51.090;-1.786;2022-08-01T00:09:55;101158.80;;;17.89;75.00
73073;BME280;61260;51.090;-1.786;2022-08-01T00:12:25;101157.20;;;17.79;74.99
73073;BME280;61260;51.090;-1.786;2022-08-01T00:14:55;101154.70;;;17.68;75.06
73073;BME280;61260;51.090;-1.786;2022-08-01T00:17:24;101153.44;;;17.55;75.24
73073;BME280;61260;51.090;-1.786;2022-08-01T00:19:54;101154.52;;;17.44;75.43
73073;BME280;61260;51.090;-1.786;2022-08-01T00:22:24;101157.75;;;17.34;75.74
73073;BME280;61260;51.090;-1.786;2022-08-01T00:24:53;101157.63;;;17.27;76.10
73073;BME280;61260;51.090;-1.786;2022-08-01T00:27:23;101158.85;;;17.24;76.64
73073;BME280;61260;51.090;-1.786;2022-08-01T00:29:52;101157.55;;;17.22;76.72
73073;BME280;61260;51.090;-1.786;2022-08-01T00:32:22;101161.15;;;17.18;77.28
73073;BME280;61260;51.090;-1.786;2022-08-01T00:34:52;101165.37;;;17.15;77.15
73073;BME280;61260;51.090;-1.786;2022-08-01T00:37:22;101167.77;;;17.11;77.35
73073;BME280;61260;51.090;-1.786;2022-08-01T00:39:51;101171.43;;;17.09;77.60
73073;BME280;61260;51.090;-1.786;2022-08-01T00:42:21;101174.30;;;17.06;77.58
73073;BME280;61260;51.090;-1.786;2022-08-01T00:44:51;101178.06;;;17.04;78.06
73073;BME280;61260;51.090;-1.786;2022-08-01T00:47:21;101182.48;;;17.05;78.20
73073;BME280;61260;51.090;-1.786;2022-08-01T00:49:50;101182.41;;;17.06;78.46
73073;BME280;61260;51.090;-1.786;2022-08-01T00:52:20;101182.11;;;17.07;78.33
73073;BME280;61260;51.090;-1.786;2022-08-01T00:54:50;101181.50;;;17.07;78.30
73073;BME280;61260;51.090;-1.786;2022-08-01T00:57:20;101178.05;;;17.08;78.45
73073;BME280;61260;51.090;-1.786;2022-08-01T00:59:50;101178.67;;;17.08;78.62
73073;BME280;61260;51.090;-1.786;2022-08-01T01:02:21;101180.16;;;17.08;78.35
73073;BME280;61260;51.090;-1.786;2022-08-01T01:04:51;101176.73;;;17.05;78.16
73073;BME280;61260;51.090;-1.786;2022-08-01T01:07:27;101179.90;;;17.01;78.22
73073;BME280;61260;51.090;-1.786;2022-08-01T01:10:02;101178.90;;;16.96;78.22
73073;BME280;61260;51.090;-1.786;2022-08-01T01:12:38;101184.09;;;16.90;78.32
73073;BME280;61260;51.090;-1.786;2022-08-01T01:15:17;101184.48;;;16.86;78.27
73073;BME280;61260;51.090;-1.786;2022-08-01T01:17:54;101186.05;;;16.85;77.99
73073;BME280;61260;51.090;-1.786;2022-08-01T01:20:29;101186.55;;;16.82;78.11
73073;BME280;61260;51.090;-1.786;2022-08-01T01:23:19;101189.23;;;16.77;78.36
73073;BME280;61260;51.090;-1.786;2022-08-01T01:26:23;101180.67;;;16.74;78.57
73073;BME280;61260;51.090;-1.786;2022-08-01T01:29:06;101181.70;;;16.73;78.80
73073;BME280;61260;51.090;-1.786;2022-08-01T01:31:43;101179.61;;;16.76;78.88
73073;BME280;61260;51.090;-1.786;2022-08-01T01:34:15;101178.02;;;16.80;78.90
73073;BME280;61260;51.090;-1.786;2022-08-01T01:36:47;101180.89;;;16.88;78.87
73073;BME280;61260;51.090;-1.786;2022-08-01T01:39:18;101182.13;;;16.96;78.88
73073;BME280;61260;51.090;-1.786;2022-08-01T01:41:50;101182.23;;;17.04;78.62
73073;BME280;61260;51.090;-1.786;2022-08-01T01:44:21;101182.14;;;17.13;78.58
73073;BME280;61260;51.090;-1.786;2022-08-01T01:46:52;101170.70;;;17.19;78.41
73073;BME280;61260;51.090;-1.786;2022-08-01T01:49:23;101167.16;;;17.26;78.27
73073;BME280;61260;51.090;-1.786;2022-08-01T01:51:56;101162.27;;;17.30;78.13
73073;BME280;61260;51.090;-1.786;2022-08-01T01:54:30;101160.89;;;17.33;77.82
73073;BME280;61260;51.090;-1.786;2022-08-01T01:57:02;101157.48;;;17.37;77.63
73073;BME280;61260;51.090;-1.786;2022-08-01T01:59:34;101155.64;;;17.42;77.23
73073;BME280;61260;51.090;-1.786;2022-08-01T02:02:09;101154.88;;;17.43;76.89
73073;BME280;61260;51.090;-1.786;2022-08-01T02:04:54;101160.33;;;17.43;76.39
73073;BME280;61260;51.090;-1.786;2022-08-01T02:07:27;101162.11;;;17.42;76.19
73073;BME280;61260;51.090;-1.786;2022-08-01T02:09:59;101161.16;;;17.42;76.00
73073;BME280;61260;51.090;-1.786;2022-08-01T02:12:30;101164.61;;;17.45;75.70
73073;BME280;61260;51.090;-1.786;2022-08-01T02:15:03;101161.00;;;17.46;75.28
73073;BME280;61260;51.090;-1.786;2022-08-01T02:17:40;101162.88;;;17.45;75.01
73073;BME280;61260;51.090;-1.786;2022-08-01T02:20:12;101166.75;;;17.45;74.83
73073;BME280;61260;51.090;-1.786;2022-08-01T02:22:44;101168.48;;;17.45;74.69
73073;BME280;61260;51.090;-1.786;2022-08-01T02:25:22;101171.17;;;17.45;74.53
73073;BME280;61260;51.090;-1.786;2022-08-01T02:27:58;101171.52;;;17.48;74.27
73073;BME280;61260;51.090;-1.786;2022-08-01T02:30:34;101163.77;;;17.48;74.00
73073;BME280;61260;51.090;-1.786;2022-08-01T02:33:08;101158.15;;;17.46;73.74
73073;BME280;61260;51.090;-1.786;2022-08-01T02:35:43;101159.02;;;17.45;73.43
73073;BME280;61260;51.090;-1.786;2022-08-01T02:38:15;101159.29;;;17.42;73.19
73073;BME280;61260;51.090;-1.786;2022-08-01T02:40:47;101159.16;;;17.39;73.07
73073;BME280;61260;51.090;-1.786;2022-08-01T02:43:21;101155.65;;;17.36;72.60
73073;BME280;61260;51.090;-1.786;2022-08-01T02:45:54;101152.55;;;17.34;72.55
73073;BME280;61260;51.090;-1.786;2022-08-01T02:48:27;101154.81;;;17.33;72.13
73073;BME280;61260;51.090;-1.786;2022-08-01T02:50:59;101155.81;;;17.36;71.91
73073;BME280;61260;51.090;-1.786;2022-08-01T02:53:32;101162.61;;;17.37;71.89
73073;BME280;61260;51.090;-1.786;2022-08-01T02:56:06;101162.77;;;17.38;71.53
73073;BME280;61260;51.090;-1.786;2022-08-01T02:58:38;101160.96;;;17.38;71.31
73073;BME280;61260;51.090;-1.786;2022-08-01T03:01:10;101159.31;;;17.33;70.99
73073;BME280;61260;51.090;-1.786;2022-08-01T03:03:41;101156.74;;;17.31;70.76
73073;BME280;61260;51.090;-1.786;2022-08-01T03:06:11;101156.16;;;17.28;70.52
73073;BME280;61260;51.090;-1.786;2022-08-01T03:08:42;101156.04;;;17.26;70.38
73073;BME280;61260;51.090;-1.786;2022-08-01T03:11:13;101155.54;;;17.24;70.16
73073;BME280;61260;51.090;-1.786;2022-08-01T03:13:46;101150.95;;;17.24;70.22
73073;BME280;61260;51.090;-1.786;2022-08-01T03:16:17;101147.26;;;17.24;70.13
73073;BME280;61260;51.090;-1.786;2022-08-01T03:18:48;101147.23;;;17.27;69.87
73073;BME280;61260;51.090;-1.786;2022-08-01T03:21:18;101142.38;;;17.34;69.64
73073;BME280;61260;51.090;-1.786;2022-08-01T03:23:50;101147.85;;;17.36;69.53
73073;BME280;61260;51.090;-1.786;2022-08-01T03:26:27;101150.45;;;17.36;69.47
73073;BME280;61260;51.090;-1.786;2022-08-01T03:29:02;101153.52;;;17.37;69.57
73073;BME280;61260;51.090;-1.786;2022-08-01T03:31:35;101156.64;;;17.39;69.90
73073;BME280;61260;51.090;-1.786;2022-08-01T03:34:06;101157.08;;;17.42;69.73
73073;BME280;61260;51.090;-1.786;2022-08-01T03:36:41;101152.88;;;17.41;69.77
73073;BME280;61260;51.090;-1.786;2022-08-01T03:39:13;101156.42;;;17.42;69.80
73073;BME280;61260;51.090;-1.786;2022-08-01T03:41:48;101156.70;;;17.43;69.58
73073;BME280;61260;51.090;-1.786;2022-08-01T03:44:24;101150.01;;;17.44;69.44
73073;BME280;61260;51.090;-1.786;2022-08-01T03:47:00;101151.59;;;17.44;69.29
73073;BME280;61260;51.090;-1.786;2022-08-01T03:49:33;101148.15;;;17.47;68.94
73073;BME280;61260;51.090;-1.786;2022-08-01T03:52:06;101145.26;;;17.50;68.76
73073;BME280;61260;51.090;-1.786;2022-08-01T03:54:40;101144.06;;;17.48;68.73
73073;BME280;61260;51.090;-1.786;2022-08-01T03:57:11;101144.21;;;17.48;68.66
73073;BME280;61260;51.090;-1.786;2022-08-01T03:59:42;101146.94;;;17.45;68.46
73073;BME280;61260;51.090;-1.786;2022-08-01T04:02:13;101150.90;;;17.40;68.19
73073;BME280;61260;51.090;-1.786;2022-08-01T04:04:46;101149.10;;;17.36;68.02
73073;BME280;61260;51.090;-1.786;2022-08-01T04:07:26;101152.98;;;17.32;67.79
73073;BME280;61260;51.090;-1.786;2022-08-01T04:09:57;101150.77;;;17.27;67.74
73073;BME280;61260;51.090;-1.786;2022-08-01T04:12:27;101154.82;;;17.23;67.64
73073;BME280;61260;51.090;-1.786;2022-08-01T04:14:56;101156.83;;;17.20;67.72
73073;BME280;61260;51.090;-1.786;2022-08-01T04:17:26;101152.39;;;17.19;67.53
73073;BME280;61260;51.090;-1.786;2022-08-01T04:19:56;101149.73;;;17.21;67.18
73073;BME280;61260;51.090;-1.786;2022-08-01T04:22:26;101140.81;;;17.19;67.13
73073;BME280;61260;51.090;-1.786;2022-08-01T04:24:57;101135.66;;;17.17;67.01
73073;BME280;61260;51.090;-1.786;2022-08-01T04:27:31;101138.39;;;17.15;66.88
73073;BME280;61260;51.090;-1.786;2022-08-01T04:30:02;101139.25;;;17.09;66.73
73073;BME280;61260;51.090;-1.786;2022-08-01T04:32:35;101140.93;;;17.06;66.54
73073;BME280;61260;51.090;-1.786;2022-08-01T04:35:09;101148.08;;;17.03;66.19
73073;BME280;61260;51.090;-1.786;2022-08-01T04:37:42;101154.42;;;17.00;66.34
73073;BME280;61260;51.090;-1.786;2022-08-01T04:40:13;101154.49;;;16.99;66.31
73073;BME280;61260;51.090;-1.786;2022-08-01T04:42:44;101157.96;;;16.99;66.10
73073;BME280;61260;51.090;-1.786;2022-08-01T04:45:14;101157.73;;;17.00;65.97
73073;BME280;61260;51.090;-1.786;2022-08-01T04:47:45;101156.55;;;17.00;65.85
73073;BME280;61260;51.090;-1.786;2022-08-01T04:50:16;101159.01;;;17.00;65.98
73073;BME280;61260;51.090;-1.786;2022-08-01T04:52:46;101158.92;;;17.00;65.85
73073;BME280;61260;51.090;-1.786;2022-08-01T04:55:15;101161.95;;;17.02;65.71
73073;BME280;61260;51.090;-1.786;2022-08-01T04:57:48;101162.62;;;17.10;65.28
73073;BME280;61260;51.090;-1.786;2022-08-01T05:00:18;101165.55;;;17.12;65.26
73073;BME280;61260;51.090;-1.786;2022-08-01T05:02:47;101167.23;;;17.14;65.25
73073;BME280;61260;51.090;-1.786;2022-08-01T05:05:17;101166.00;;;17.16;65.10
73073;BME280;61260;51.090;-1.786;2022-08-01T05:07:48;101165.07;;;17.17;65.20
73073;BME280;61260;51.090;-1.786;2022-08-01T05:10:18;101169.14;;;17.21;65.24
73073;BME280;61260;51.090;-1.786;2022-08-01T05:12:48;101167.40;;;17.26;65.16
73073;BME280;61260;51.090;-1.786;2022-08-01T05:15:18;101167.29;;;17.28;65.04
73073;BME280;61260;51.090;-1.786;2022-08-01T05:17:49;101170.54;;;17.30;65.11
73073;BME280;61260;51.090;-1.786;2022-08-01T05:20:19;101174.59;;;17.32;64.96
73073;BME280;61260;51.090;-1.786;2022-08-01T05:22:48;101174.73;;;17.35;64.80
73073;BME280;61260;51.090;-1.786;2022-08-01T05:25:18;101175.70;;;17.37;64.57
73073;BME280;61260;51.090;-1.786;2022-08-01T05:27:48;101175.05;;;17.41;64.72
73073;BME280;61260;51.090;-1.786;2022-08-01T05:30:19;101183.16;;;17.45;64.50
73073;BME280;61260;51.090;-1.786;2022-08-01T05:32:48;101179.97;;;17.48;64.53
73073;BME280;61260;51.090;-1.786;2022-08-01T05:35:18;101179.70;;;17.52;64.12
73073;BME280;61260;51.090;-1.786;2022-08-01T05:37:48;101179.96;;;17.55;64.02
73073;BME280;61260;51.090;-1.786;2022-08-01T05:40:17;101183.62;;;17.58;63.78
73073;BME280;61260;51.090;-1.786;2022-08-01T05:42:47;101187.48;;;17.62;63.63
73073;BME280;61260;51.090;-1.786;2022-08-01T05:45:16;101189.44;;;17.68;63.31
73073;BME280;61260;51.090;-1.786;2022-08-01T05:47:46;101191.86;;;17.79;62.89
73073;BME280;61260;51.090;-1.786;2022-08-01T05:50:16;101201.31;;;17.85;62.74
73073;BME280;61260;51.090;-1.786;2022-08-01T05:52:45;101202.63;;;17.88;62.48
73073;BME280;61260;51.090;-1.786;2022-08-01T05:55:15;101203.27;;;17.91;62.42
73073;BME280;61260;51.090;-1.786;2022-08-01T05:57:45;101198.91;;;17.95;62.32
73073;BME280;61260;51.090;-1.786;2022-08-01T06:00:16;101196.44;;;17.99;62.01
73073;BME280;61260;51.090;-1.786;2022-08-01T06:02:45;101204.05;;;18.03;61.89
73073;BME280;61260;51.090;-1.786;2022-08-01T06:05:15;101207.47;;;18.05;61.32
73073;BME280;61260;51.090;-1.786;2022-08-01T06:07:45;101208.27;;;18.06;60.89
73073;BME280;61260;51.090;-1.786;2022-08-01T06:10:14;101206.61;;;18.06;60.76
73073;BME280;61260;51.090;-1.786;2022-08-01T06:12:44;101212.01;;;18.09;60.90
73073;BME280;61260;51.090;-1.786;2022-08-01T06:15:14;101212.48;;;18.09;60.25
73073;BME280;61260;51.090;-1.786;2022-08-01T06:17:43;101214.86;;;18.09;60.16
73073;BME280;61260;51.090;-1.786;2022-08-01T06:20:13;101206.79;;;18.08;60.22
73073;BME280;61260;51.090;-1.786;2022-08-01T06:22:43;101207.52;;;18.09;60.29
73073;BME280;61260;51.090;-1.786;2022-08-01T06:25:12;101205.08;;;18.11;60.28
73073;BME280;61260;51.090;-1.786;2022-08-01T06:27:42;101200.52;;;18.13;59.85
73073;BME280;61260;51.090;-1.786;2022-08-01T06:30:12;101205.70;;;18.16;59.53
73073;BME280;61260;51.090;-1.786;2022-08-01T06:32:43;101206.39;;;18.22;59.72
73073;BME280;61260;51.090;-1.786;2022-08-01T06:35:12;101207.44;;;18.30;59.54
73073;BME280;61260;51.090;-1.786;2022-08-01T06:37:42;101208.48;;;18.39;59.74
73073;BME280;61260;51.090;-1.786;2022-08-01T06:40:13;101204.97;;;18.44;59.19
73073;BME280;61260;51.090;-1.786;2022-08-01T06:42:42;101208.82;;;18.50;59.05
73073;BME280;61260;51.090;-1.786;2022-08-01T06:45:14;101211.70;;;18.54;58.81
73073;BME280;61260;51.090;-1.786;2022-08-01T06:47:44;101212.68;;;18.57;58.62
73073;BME280;61260;51.090;-1.786;2022-08-01T06:50:14;101215.57;;;18.64;58.81
73073;BME280;61260;51.090;-1.786;2022-08-01T06:52:44;101213.41;;;18.68;57.96
73073;BME280;61260;51.090;-1.786;2022-08-01T06:55:13;101215.02;;;18.72;58.14
73073;BME280;61260;51.090;-1.786;2022-08-01T06:57:50;101216.25;;;18.78;57.73
73073;BME280;61260;51.090;-1.786;2022-08-01T07:00:21;101215.81;;;18.84;57.02
73073;BME280;61260;51.090;-1.786;2022-08-01T07:02:52;101214.23;;;18.94;56.92
73073;BME280;61260;51.090;-1.786;2022-08-01T07:05:22;101215.66;;;19.04;56.30
73073;BME280;61260;51.090;-1.786;2022-08-01T07:07:52;101216.64;;;19.18;56.42
73073;BME280;61260;51.090;-1.786;2022-08-01T07:10:22;101217.29;;;19.33;56.06
73073;BME280;61260;51.090;-1.786;2022-08-01T07:12:51;101222.31;;;19.52;55.83
73073;BME280;61260;51.090;-1.786;2022-08-01T07:15:21;101213.91;;;19.73;55.25
73073;BME280;61260;51.090;-1.786;2022-08-01T07:17:54;101222.58;;;19.98;54.55
73073;BME280;61260;51.090;-1.786;2022-08-01T07:20:25;101218.21;;;20.15;53.06
73073;BME280;61260;51.090;-1.786;2022-08-01T07:22:54;101221.56;;;20.24;53.08
73073;BME280;61260;51.090;-1.786;2022-08-01T07:25:24;101225.86;;;20.33;53.25
73073;BME280;61260;51.090;-1.786;2022-08-01T07:27:54;101225.95;;;20.41;52.87
73073;BME280;61260;51.090;-1.786;2022-08-01T07:30:23;101228.89;;;20.42;52.55
73073;BME280;61260;51.090;-1.786;2022-08-01T07:32:53;101230.48;;;20.46;52.49
73073;BME280;61260;51.090;-1.786;2022-08-01T07:35:23;101236.27;;;20.50;52.36
73073;BME280;61260;51.090;-1.786;2022-08-01T07:37:53;101238.41;;;20.50;52.22
73073;BME280;61260;51.090;-1.786;2022-08-01T07:40:22;101234.45;;;20.44;51.64
73073;BME280;61260;51.090;-1.786;2022-08-01T07:42:52;101237.35;;;20.39;52.07
73073;BME280;61260;51.090;-1.786;2022-08-01T07:45:22;101240.05;;;20.40;52.26
73073;BME280;61260;51.090;-1.786;2022-08-01T07:47:52;101240.39;;;20.52;52.53
73073;BME280;61260;51.090;-1.786;2022-08-01T07:50:21;101237.16;;;20.68;51.47
73073;BME280;61260;51.090;-1.786;2022-08-01T07:52:51;101233.70;;;20.84;51.24
73073;BME280;61260;51.090;-1.786;2022-08-01T07:55:21;101236.07;;;21.04;51.48
73073;BME280;61260;51.090;-1.786;2022-08-01T07:57:50;101235.64;;;21.27;50.11
73073;BME280;61260;51.090;-1.786;2022-08-01T08:00:20;101234.34;;;21.43;49.50
73073;BME280;61260;51.090;-1.786;2022-08-01T08:02:50;101235.89;;;21.53;49.29
73073;BME280;61260;51.090;-1.786;2022-08-01T08:05:19;101236.75;;;21.64;48.72
73073;BME280;61260;51.090;-1.786;2022-08-01T08:07:49;101237.48;;;21.83;49.02
73073;BME280;61260;51.090;-1.786;2022-08-01T08:10:19;101247.29;;;22.11;48.64
73073;BME280;61260;51.090;-1.786;2022-08-01T08:12:48;101247.15;;;22.35;48.56
73073;BME280;61260;51.090;-1.786;2022-08-01T08:15:18;101251.81;;;22.43;48.42
73073;BME280;61260;51.090;-1.786;2022-08-01T08:17:48;101252.61;;;22.43;47.36
73073;BME280;61260;51.090;-1.786;2022-08-01T08:20:18;101248.30;;;22.27;46.93
73073;BME280;61260;51.090;-1.786;2022-08-01T08:22:52;101248.40;;;22.11;47.92
73073;BME280;61260;51.090;-1.786;2022-08-01T08:25:23;101247.81;;;21.98;47.39
73073;BME280;61260;51.090;-1.786;2022-08-01T08:27:53;101249.21;;;21.90;48.39
73073;BME280;61260;51.090;-1.786;2022-08-01T08:30:22;101252.23;;;21.90;48.10
73073;BME280;61260;51.090;-1.786;2022-08-01T08:32:52;101254.89;;;21.82;47.62
73073;BME280;61260;51.090;-1.786;2022-08-01T08:35:22;101252.98;;;21.79;46.69
73073;BME280;61260;51.090;-1.786;2022-08-01T08:37:52;101249.95;;;21.83;47.20
73073;BME280;61260;51.090;-1.786;2022-08-01T08:40:22;101256.42;;;22.09;46.02
73073;BME280;61260;51.090;-1.786;2022-08-01T08:42:59;101250.95;;;22.38;45.56
73073;BME280;61260;51.090;-1.786;2022-08-01T08:45:29;101248.27;;;22.70;45.09
73073;BME280;61260;51.090;-1.786;2022-08-01T08:47:59;101245.44;;;23.07;43.89
73073;BME280;61260;51.090;-1.786;2022-08-01T08:50:30;101242.80;;;23.34;43.79
73073;BME280;61260;51.090;-1.786;2022-08-01T08:53:01;101247.49;;;23.56;44.05
73073;BME280;61260;51.090;-1.786;2022-08-01T08:55:31;101252.36;;;23.77;43.79
73073;BME280;61260;51.090;-1.786;2022-08-01T08:58:01;101253.75;;;23.89;42.61
73073;BME280;61260;51.090;-1.786;2022-08-01T09:00:34;101252.59;;;23.97;42.82
73073;BME280;61260;51.090;-1.786;2022-08-01T09:03:04;101251.94;;;23.99;41.41
73073;BME280;61260;51.090;-1.786;2022-08-01T09:05:33;101258.98;;;24.03;41.87
73073;BME280;61260;51.090;-1.786;2022-08-01T09:08:08;101258.48;;;24.12;41.16
73073;BME280;61260;51.090;-1.786;2022-08-01T09:10:37;101248.24;;;24.24;40.79
73073;BME280;61260;51.090;-1.786;2022-08-01T09:13:10;101242.13;;;24.39;40.20
73073;BME280;61260;51.090;-1.786;2022-08-01T09:15:42;101246.72;;;24.79;39.35
73073;BME280;61260;51.090;-1.786;2022-08-01T09:18:27;101247.86;;;25.10;38.78
73073;BME280;61260;51.090;-1.786;2022-08-01T09:21:12;101248.08;;;25.43;38.29
73073;BME280;61260;51.090;-1.786;2022-08-01T09:23:44;101251.36;;;25.55;37.49
73073;BME280;61260;51.090;-1.786;2022-08-01T09:26:16;101245.55;;;25.50;37.45
73073;BME280;61260;51.090;-1.786;2022-08-01T09:28:47;101250.08;;;25.79;36.32
73073;BME280;61260;51.090;-1.786;2022-08-01T09:31:18;101244.99;;;26.34;36.60
73073;BME280;61260;51.090;-1.786;2022-08-01T09:33:53;101245.11;;;26.83;34.87
73073;BME280;61260;51.090;-1.786;2022-08-01T09:36:24;101233.12;;;27.23;34.96
73073;BME280;61260;51.090;-1.786;2022-08-01T09:38:55;101223.61;;;27.87;33.52
73073;BME280;61260;51.090;-1.786;2022-08-01T09:41:32;101215.58;;;28.27;32.25
73073;BME280;61260;51.090;-1.786;2022-08-01T09:44:01;101216.52;;;28.31;31.97
73073;BME280;61260;51.090;-1.786;2022-08-01T09:46:31;101222.97;;;28.55;32.57
73073;BME280;61260;51.090;-1.786;2022-08-01T09:49:02;101221.27;;;29.08;33.11
73073;BME280;61260;51.090;-1.786;2022-08-01T09:51:36;101218.33;;;29.64;31.39
73073;BME280;61260;51.090;-1.786;2022-08-01T09:54:07;101219.98;;;30.03;31.18
73073;BME280;61260;51.090;-1.786;2022-08-01T09:56:41;101220.48;;;30.49;31.11
73073;BME280;61260;51.090;-1.786;2022-08-01T09:59:11;101216.67;;;31.01;30.29
73073;BME280;61260;51.090;-1.786;2022-08-01T10:01:45;101221.84;;;31.44;29.62
73073;BME280;61260;51.090;-1.786;2022-08-01T10:04:17;101224.27;;;31.65;29.94
73073;BME280;61260;51.090;-1.786;2022-08-01T10:06:48;101224.61;;;31.90;29.09
73073;BME280;61260;51.090;-1.786;2022-08-01T10:09:28;101231.14;;;32.02;28.77
73073;BME280;61260;51.090;-1.786;2022-08-01T10:11:56;101227.44;;;32.27;28.91
73073;BME280;61260;51.090;-1.786;2022-08-01T10:14:29;101228.61;;;32.43;29.01
73073;BME280;61260;51.090;-1.786;2022-08-01T10:16:59;101237.85;;;31.93;28.93
73073;BME280;61260;51.090;-1.786;2022-08-01T10:19:30;101246.67;;;31.32;29.82
73073;BME280;61260;51.090;-1.786;2022-08-01T10:22:01;101246.17;;;31.02;31.09
73073;BME280;61260;51.090;-1.786;2022-08-01T10:24:37;101234.75;;;31.80;30.12
73073;BME280;61260;51.090;-1.786;2022-08-01T10:27:09;101219.27;;;32.42;28.22
73073;BME280;61260;51.090;-1.786;2022-08-01T10:29:42;101211.40;;;32.58;27.62
73073;BME280;61260;51.090;-1.786;2022-08-01T10:32:12;101210.30;;;32.98;28.25
73073;BME280;61260;51.090;-1.786;2022-08-01T10:34:42;101215.98;;;33.49;28.11
73073;BME280;61260;51.090;-1.786;2022-08-01T10:37:14;101221.74;;;34.15;26.92
73073;BME280;61260;51.090;-1.786;2022-08-01T10:39:44;101221.33;;;34.70;26.73
73073;BME280;61260;51.090;-1.786;2022-08-01T10:42:14;101224.34;;;35.23;26.21
73073;BME280;61260;51.090;-1.786;2022-08-01T10:44:43;101219.60;;;35.62;24.72
73073;BME280;61260;51.090;-1.786;2022-08-01T10:47:21;101216.08;;;35.70;24.46
73073;BME280;61260;51.090;-1.786;2022-08-01T10:49:53;101214.53;;;35.49;24.81
73073;BME280;61260;51.090;-1.786;2022-08-01T10:52:26;101213.85;;;35.68;24.76
73073;BME280;61260;51.090;-1.786;2022-08-01T10:55:05;101222.41;;;35.55;24.84
73073;BME280;61260;51.090;-1.786;2022-08-01T10:57:44;101223.56;;;34.90;25.19
73073;BME280;61260;51.090;-1.786;2022-08-01T11:00:19;101228.95;;;34.05;26.00
73073;BME280;61260;51.090;-1.786;2022-08-01T11:03:01;101227.56;;;33.24;27.31
73073;BME280;61260;51.090;-1.786;2022-08-01T11:05:33;101221.02;;;33.02;28.04
73073;BME280;61260;51.090;-1.786;2022-08-01T11:08:05;101215.20;;;32.86;27.92
73073;BME280;61260;51.090;-1.786;2022-08-01T11:10:40;101219.80;;;32.92;28.43
73073;BME280;61260;51.090;-1.786;2022-08-01T11:13:11;101212.09;;;33.58;27.13
73073;BME280;61260;51.090;-1.786;2022-08-01T11:15:41;101212.98;;;34.12;26.96
73073;BME280;61260;51.090;-1.786;2022-08-01T11:18:30;101212.11;;;34.71;25.82
73073;BME280;61260;51.090;-1.786;2022-08-01T11:21:02;101214.44;;;34.83;26.13
73073;BME280;61260;51.090;-1.786;2022-08-01T11:23:31;101214.84;;;34.45;25.27
73073;BME280;61260;51.090;-1.786;2022-08-01T11:26:19;101213.81;;;33.54;26.01
73073;BME280;61260;51.090;-1.786;2022-08-01T11:29:13;101207.73;;;33.23;27.21
73073;BME280;61260;51.090;-1.786;2022-08-01T11:31:43;101209.73;;;33.27;27.43
73073;BME280;61260;51.090;-1.786;2022-08-01T11:34:13;101208.77;;;33.55;26.83
73073;BME280;61260;51.090;-1.786;2022-08-01T11:36:42;101205.69;;;33.81;26.51
73073;BME280;61260;51.090;-1.786;2022-08-01T11:39:17;101204.46;;;33.76;26.20
73073;BME280;61260;51.090;-1.786;2022-08-01T11:41:48;101205.68;;;33.60;25.85
73073;BME280;61260;51.090;-1.786;2022-08-01T11:44:23;101201.70;;;33.38;26.89
73073;BME280;61260;51.090;-1.786;2022-08-01T11:47:00;101202.80;;;33.68;26.47
73073;BME280;61260;51.090;-1.786;2022-08-01T11:49:44;101198.80;;;33.94;25.55
73073;BME280;61260;51.090;-1.786;2022-08-01T11:52:15;101197.10;;;34.52;25.07
73073;BME280;61260;51.090;-1.786;2022-08-01T11:54:47;101195.17;;;35.17;24.90
73073;BME280;61260;51.090;-1.786;2022-08-01T11:57:20;101192.71;;;35.96;23.80
73073;BME280;61260;51.090;-1.786;2022-08-01T11:59:51;101186.11;;;36.43;22.46
73073;BME280;61260;51.090;-1.786;2022-08-01T12:02:23;101178.85;;;36.76;22.04
73073;BME280;61260;51.090;-1.786;2022-08-01T12:04:56;101175.23;;;36.91;21.37
73073;BME280;61260;51.090;-1.786;2022-08-01T12:07:28;101172.77;;;36.51;21.16
73073;BME280;61260;51.090;-1.786;2022-08-01T12:10:04;101172.95;;;36.01;21.55
73073;BME280;61260;51.090;-1.786;2022-08-01T12:12:36;101175.23;;;36.00;22.25
73073;BME280;61260;51.090;-1.786;2022-08-01T12:15:09;101170.75;;;36.50;21.81
73073;BME280;61260;51.090;-1.786;2022-08-01T12:17:40;101162.16;;;36.84;21.44
73073;BME280;61260;51.090;-1.786;2022-08-01T12:20:13;101164.88;;;36.88;20.79
73073;BME280;61260;51.090;-1.786;2022-08-01T12:22:43;101154.89;;;36.48;20.46
73073;BME280;61260;51.090;-1.786;2022-08-01T12:25:14;101156.44;;;36.15;21.62
73073;BME280;61260;51.090;-1.786;2022-08-01T12:27:45;101151.98;;;36.16;21.01
73073;BME280;61260;51.090;-1.786;2022-08-01T12:30:17;101150.43;;;35.64;21.43
73073;BME280;61260;51.090;-1.786;2022-08-01T12:32:48;101145.07;;;35.32;22.29
73073;BME280;61260;51.090;-1.786;2022-08-01T12:35:18;101141.68;;;35.68;22.21
73073;BME280;61260;51.090;-1.786;2022-08-01T12:37:52;101132.76;;;36.04;22.16
73073;BME280;61260;51.090;-1.786;2022-08-01T12:40:23;101125.91;;;36.10;21.91
73073;BME280;61260;51.090;-1.786;2022-08-01T12:42:54;101124.76;;;35.83;21.49
73073;BME280;61260;51.090;-1.786;2022-08-01T12:45:26;101123.87;;;35.29;22.70
73073;BME280;61260;51.090;-1.786;2022-08-01T12:47:57;101122.71;;;35.06;22.39
73073;BME280;61260;51.090;-1.786;2022-08-01T12:50:30;101126.20;;;35.17;22.36
73073;BME280;61260;51.090;-1.786;2022-08-01T12:53:00;101121.94;;;35.27;22.43
73073;BME280;61260;51.090;-1.786;2022-08-01T12:55:30;101122.55;;;35.21;21.93
73073;BME280;61260;51.090;-1.786;2022-08-01T12:58:07;101125.85;;;35.36;22.39
73073;BME280;61260;51.090;-1.786;2022-08-01T13:00:38;101124.78;;;35.66;22.36
73073;BME280;61260;51.090;-1.786;2022-08-01T13:03:11;101125.52;;;35.85;22.72
73073;BME280;61260;51.090;-1.786;2022-08-01T13:05:45;101123.20;;;35.81;21.92